Time;durP1;ratioP1;P1;durP2;ratioP2;P2;SDS_P1;SDS_P2;PMS_P1;PMS_P2;Temp;Humidity;BMP_temperature;BMP_pressure;BME280_temperature;BME280_humidity;BME280_pressure;Samples;Min_cycle;Max_cycle;Signal;HPM_P1;HPM_P2
2023/08/06 00:00:20;;;;;;;0.35;0.30;;;14.70;99.90;;;;;;5030100;28;20072;-68
2023/08/06 00:02:46;;;;;;;0.10;0.10;;;14.70;99.90;;;;;;5036526;28;20040;-68
2023/08/06 00:05:12;;;;;;;0.13;0.10;;;14.70;99.90;;;;;;5038897;28;20400;-68
2023/08/06 00:07:37;;;;;;;0.55;0.55;;;14.70;99.90;;;;;;5038738;28;20041;-68
2023/08/06 00:10:03;;;;;;;0.13;0.13;;;14.60;99.90;;;;;;5022889;28;20045;-68
2023/08/06 00:12:29;;;;;;;0.00;0.00;;;14.60;99.90;;;;;;5038273;28;20045;-68
2023/08/06 00:14:55;;;;;;;0.00;0.00;;;14.70;99.90;;;;;;5042951;28;20044;-68
2023/08/06 00:17:20;;;;;;;0.00;0.00;;;14.70;99.90;;;;;;5046361;28;20073;-68
2023/08/06 00:19:46;;;;;;;0.10;0.10;;;14.70;99.90;;;;;;5038430;28;20048;-68
2023/08/06 00:22:11;;;;;;;0.00;0.00;;;14.60;99.90;;;;;;5040988;28;20045;-68
2023/08/06 00:24:37;;;;;;;0.08;0.05;;;14.60;99.90;;;;;;5047882;28;20745;-68
2023/08/06 00:27:03;;;;;;;0.20;0.20;;;14.70;99.90;;;;;;5041720;28;20056;-68
2023/08/06 00:29:29;;;;;;;0.00;0.00;;;14.70;99.90;;;;;;5028540;28;20037;-68
2023/08/06 00:31:54;;;;;;;0.00;0.00;;;14.70;99.90;;;;;;5034601;28;20040;-68
2023/08/06 00:34:20;;;;;;;0.10;0.10;;;14.60;99.90;;;;;;5036745;28;20528;-68
2023/08/06 00:36:45;;;;;;;0.43;0.32;;;14.70;99.90;;;;;;5034874;28;20044;-68
2023/08/06 00:39:11;;;;;;;0.20;0.20;;;14.70;99.90;;;;;;5045820;28;20130;-69
2023/08/06 00:41:37;;;;;;;0.10;0.10;;;14.70;99.90;;;;;;5048465;28;20044;-68
2023/08/06 00:44:03;;;;;;;0.43;0.43;;;14.70;99.90;;;;;;5041592;28;20424;-68
2023/08/06 00:46:29;;;;;;;0.00;0.00;;;14.70;99.90;;;;;;5045078;28;20037;-68
2023/08/06 00:48:56;;;;;;;0.63;0.28;;;14.70;99.90;;;;;;5044619;28;20045;-68
2023/08/06 00:51:22;;;;;;;0.00;0.00;;;14.70;99.90;;;;;;5041472;28;20083;-68
2023/08/06 00:53:49;;;;;;;0.50;0.45;;;14.70;99.90;;;;;;5023158;28;20057;-68
2023/08/06 00:56:15;;;;;;;0.10;0.10;;;14.70;99.90;;;;;;5042066;28;20435;-68
2023/08/06 00:58:41;;;;;;;0.13;0.13;;;14.70;99.90;;;;;;5045005;28;20039;-68
2023/08/06 01:01:07;;;;;;;0.00;0.00;;;14.70;99.90;;;;;;5034884;28;20045;-68
2023/08/06 01:03:33;;;;;;;0.00;0.00;;;14.70;99.90;;;;;;5044121;28;20044;-68
2023/08/06 01:05:59;;;;;;;0.00;0.00;;;14.70;99.90;;;;;;5040025;28;20037;-68
2023/08/06 01:08:45;;;;;;;0.10;0.10;;;14.70;99.90;;;;;;5040524;28;20514;-68
2023/08/06 01:11:37;;;;;;;0.28;0.28;;;14.70;99.90;;;;;;5028345;28;20366;-68
2023/08/06 01:14:28;;;;;;;0.47;0.47;;;14.70;99.90;;;;;;5042370;28;20134;-68
2023/08/06 01:16:54;;;;;;;0.00;0.00;;;14.70;99.90;;;;;;5024344;28;20385;-68
2023/08/06 01:19:21;;;;;;;0.00;0.00;;;14.70;99.90;;;;;;5038590;28;20037;-68
2023/08/06 01:21:47;;;;;;;0.40;0.40;;;14.70;99.90;;;;;;5038423;28;20123;-68
2023/08/06 01:24:13;;;;;;;0.10;0.10;;;14.70;99.90;;;;;;5037740;28;20072;-68
2023/08/06 01:26:54;;;;;;;0.10;0.10;;;14.70;99.90;;;;;;5034206;28;20044;-68
2023/08/06 01:29:28;;;;;;;0.00;0.00;;;14.70;99.90;;;;;;5038520;28;20068;-68
2023/08/06 01:31:56;;;;;;;0.00;0.00;;;14.70;99.90;;;;;;5034666;28;20045;-67
2023/08/06 01:34:25;;;;;;;0.00;0.00;;;14.70;99.90;;;;;;5025900;28;20041;-68
2023/08/06 01:36:52;;;;;;;0.75;0.63;;;14.70;99.90;;;;;;5033599;28;20127;-68
2023/08/06 01:39:20;;;;;;;0.05;0.05;;;14.70;99.90;;;;;;5042729;28;20048;-68
2023/08/06 01:41:49;;;;;;;0.20;0.20;;;14.70;99.90;;;;;;5034827;28;20404;-68
2023/08/06 01:44:15;;;;;;;0.00;0.00;;;14.70;99.90;;;;;;5038211;28;20041;-68
2023/08/06 01:46:41;;;;;;;0.00;0.00;;;14.70;99.90;;;;;;5035454;28;20044;-68
2023/08/06 01:49:07;;;;;;;0.00;0.00;;;14.70;99.90;;;;;;5036585;28;20047;-68
2023/08/06 01:51:33;;;;;;;2.35;1.55;;;14.70;99.90;;;;;;5030794;28;20053;-68
2023/08/06 01:53:58;;;;;;;0.00;0.00;;;14.70;99.90;;;;;;5040916;28;20072;-69
2023/08/06 01:56:24;;;;;;;0.52;0.52;;;14.70;99.90;;;;;;5041894;28;21058;-68
2023/08/06 01:58:50;;;;;;;0.22;0.22;;;14.70;99.90;;;;;;5041425;28;20063;-68
2023/08/06 02:01:15;;;;;;;0.10;0.10;;;14.70;99.90;;;;;;5040522;28;20053;-68
2023/08/06 02:03:41;;;;;;;0.43;0.43;;;14.70;99.90;;;;;;5042517;28;20050;-68
2023/08/06 02:06:06;;;;;;;0.05;0.05;;;14.70;99.90;;;;;;5042345;28;20037;-68
2023/08/06 02:08:32;;;;;;;0.00;0.00;;;14.70;99.90;;;;;;5046320;28;20056;-68
2023/08/06 02:10:58;;;;;;;0.00;0.00;;;14.70;99.90;;;;;;5039651;28;20545;-68
2023/08/06 02:13:24;;;;;;;0.00;0.00;;;14.70;99.90;;;;;;5024842;28;20162;-68
2023/08/06 02:15:49;;;;;;;0.05;0.05;;;14.70;99.90;;;;;;5036297;28;20037;-69
2023/08/06 02:18:15;;;;;;;0.10;0.10;;;14.70;99.90;;;;;;5027255;28;20053;-68
2023/08/06 02:20:42;;;;;;;0.08;0.08;;;14.70;99.90;;;;;;5038321;28;20124;-68
2023/08/06 02:23:08;;;;;;;0.05;0.05;;;14.60;99.90;;;;;;5021206;28;20045;-68
2023/08/06 02:25:33;;;;;;;0.10;0.10;;;14.60;99.90;;;;;;5040443;28;20036;-68
2023/08/06 02:27:59;;;;;;;0.03;0.03;;;14.60;99.90;;;;;;5042592;28;20378;-69
2023/08/06 02:30:24;;;;;;;0.32;0.32;;;14.60;99.90;;;;;;5026011;28;20505;-69
2023/08/06 02:32:50;;;;;;;0.00;0.00;;;14.60;99.90;;;;;;5024270;28;20045;-68
2023/08/06 02:35:16;;;;;;;0.40;0.40;;;14.60;99.90;;;;;;5037222;28;20366;-68
2023/08/06 02:37:41;;;;;;;0.10;0.10;;;14.60;99.90;;;;;;5035151;28;20037;-68
2023/08/06 02:40:08;;;;;;;0.10;0.10;;;14.50;99.90;;;;;;5042588;28;20033;-68
2023/08/06 02:42:33;;;;;;;0.22;0.22;;;14.50;99.90;;;;;;5031279;28;21160;-68
2023/08/06 02:44:59;;;;;;;0.10;0.10;;;14.50;99.90;;;;;;5043108;28;20047;-68
2023/08/06 02:47:24;;;;;;;0.00;0.00;;;14.50;99.90;;;;;;5042907;28;20045;-68
2023/08/06 02:49:50;;;;;;;0.00;0.00;;;14.60;99.90;;;;;;5044487;28;20381;-68
2023/08/06 02:52:16;;;;;;;0.10;0.10;;;14.60;99.90;;;;;;5046240;28;20104;-68
2023/08/06 02:54:42;;;;;;;0.10;0.10;;;14.60;99.90;;;;;;5047517;28;20053;-68
2023/08/06 02:57:08;;;;;;;1.17;1.08;;;14.60;99.90;;;;;;5043205;28;20045;-68
2023/08/06 02:59:34;;;;;;;0.00;0.00;;;14.60;99.90;;;;;;5035171;28;20547;-68
2023/08/06 03:01:59;;;;;;;0.20;0.20;;;14.60;99.90;;;;;;5044590;28;20045;-68
2023/08/06 03:04:25;;;;;;;0.52;0.52;;;14.60;99.90;;;;;;5040322;28;20527;-68
2023/08/06 03:06:51;;;;;;;0.10;0.10;;;14.60;99.90;;;;;;5018878;28;20056;-68
2023/08/06 03:09:17;;;;;;;0.38;0.38;;;14.60;99.90;;;;;;5038967;28;20431;-68
2023/08/06 03:11:43;;;;;;;0.00;0.00;;;14.70;99.90;;;;;;5042134;28;20128;-68
2023/08/06 03:14:08;;;;;;;0.00;0.00;;;14.70;99.90;;;;;;5022182;28;20135;-68
2023/08/06 03:16:34;;;;;;;0.10;0.10;;;14.70;99.90;;;;;;5041206;28;20041;-68
2023/08/06 03:19:00;;;;;;;0.00;0.00;;;14.70;99.90;;;;;;5035996;28;20041;-68
2023/08/06 03:21:26;;;;;;;0.13;0.13;;;14.70;99.90;;;;;;5036442;28;20065;-68
2023/08/06 03:23:51;;;;;;;0.00;0.00;;;14.60;99.90;;;;;;5041250;28;20511;-68
2023/08/06 03:26:17;;;;;;;0.00;0.00;;;14.70;99.90;;;;;;5038688;28;20412;-68
2023/08/06 03:28:43;;;;;;;0.30;0.30;;;14.70;99.90;;;;;;5040259;28;20041;-67
2023/08/06 03:31:08;;;;;;;0.03;0.03;;;14.70;99.90;;;;;;5037926;28;20046;-68
2023/08/06 03:33:34;;;;;;;0.20;0.20;;;14.70;99.90;;;;;;5041878;28;20145;-68
2023/08/06 03:36:00;;;;;;;0.13;0.13;;;14.70;99.90;;;;;;5049836;28;20445;-68
2023/08/06 03:38:25;;;;;;;0.25;0.22;;;14.70;99.90;;;;;;5041130;28;20049;-68
2023/08/06 03:40:51;;;;;;;0.70;0.55;;;14.60;99.90;;;;;;5049565;28;20037;-68
2023/08/06 03:43:17;;;;;;;0.03;0.03;;;14.60;99.90;;;;;;5049172;28;20431;-67
2023/08/06 03:45:42;;;;;;;0.25;0.25;;;14.60;99.90;;;;;;5040508;28;20037;-67
2023/08/06 03:48:09;;;;;;;0.00;0.00;;;14.60;99.90;;;;;;5041345;28;20041;-65
2023/08/06 03:50:35;;;;;;;0.10;0.10;;;14.60;99.90;;;;;;5022967;28;20223;-66
2023/08/06 03:53:00;;;;;;;0.10;0.10;;;14.60;99.90;;;;;;5037961;28;20072;-67
2023/08/06 03:55:26;;;;;;;0.20;0.20;;;14.60;99.90;;;;;;5036136;28;20461;-67
2023/08/06 03:57:52;;;;;;;0.55;0.22;;;14.60;99.90;;;;;;5040966;28;20063;-67
2023/08/06 04:00:17;;;;;;;0.00;0.00;;;14.60;99.90;;;;;;5023936;28;20503;-67
2023/08/06 04:02:43;;;;;;;0.17;0.17;;;14.70;99.90;;;;;;5040157;28;20037;-67
2023/08/06 04:05:09;;;;;;;0.10;0.10;;;14.60;99.90;;;;;;5038972;28;20078;-67
2023/08/06 04:07:35;;;;;;;0.30;0.30;;;14.60;99.90;;;;;;5020892;28;20095;-66
2023/08/06 04:10:02;;;;;;;0.32;0.32;;;14.60;99.90;;;;;;5032462;28;20136;-67
2023/08/06 04:12:28;;;;;;;0.00;0.00;;;14.60;99.90;;;;;;5039896;28;20433;-66
2023/08/06 04:14:54;;;;;;;0.20;0.20;;;14.60;99.90;;;;;;5041547;28;20083;-67
2023/08/06 04:17:21;;;;;;;0.17;0.17;;;14.50;99.90;;;;;;5023882;28;20045;-66
2023/08/06 04:19:48;;;;;;;0.13;0.13;;;14.50;99.90;;;;;;5031472;28;20530;-67
2023/08/06 04:22:14;;;;;;;0.17;0.17;;;14.50;99.90;;;;;;5037517;28;20045;-67
2023/08/06 04:24:40;;;;;;;0.30;0.30;;;14.50;99.90;;;;;;5044057;28;20061;-68
2023/08/06 04:27:05;;;;;;;0.05;0.05;;;14.50;99.90;;;;;;5036458;28;20088;-68
2023/08/06 04:29:31;;;;;;;1.15;0.35;;;14.50;99.90;;;;;;5043240;28;20041;-68
2023/08/06 04:31:57;;;;;;;0.30;0.30;;;14.50;99.90;;;;;;5037081;28;20428;-68
2023/08/06 04:34:22;;;;;;;0.20;0.20;;;14.50;99.90;;;;;;5040107;28;20081;-67
2023/08/06 04:36:48;;;;;;;0.00;0.00;;;14.50;99.90;;;;;;5039661;28;20515;-67
2023/08/06 04:39:14;;;;;;;0.10;0.10;;;14.60;99.90;;;;;;5036493;28;20048;-68
2023/08/06 04:41:40;;;;;;;0.10;0.10;;;14.60;99.90;;;;;;5020034;28;20049;-68
2023/08/06 04:44:05;;;;;;;0.00;0.00;;;14.60;99.90;;;;;;5036392;28;20052;-67
2023/08/06 04:46:31;;;;;;;0.50;0.50;;;14.60;99.90;;;;;;5041900;28;20045;-68
2023/08/06 04:48:56;;;;;;;0.13;0.13;;;14.60;99.90;;;;;;5036693;28;20370;-67
2023/08/06 04:51:22;;;;;;;0.20;0.20;;;14.70;99.90;;;;;;5035153;28;20066;-68
2023/08/06 04:53:48;;;;;;;0.10;0.10;;;14.70;99.90;;;;;;5041002;28;20610;-68
2023/08/06 04:56:13;;;;;;;0.10;0.10;;;14.70;99.90;;;;;;5041825;28;20045;-68
2023/08/06 04:58:39;;;;;;;0.20;0.20;;;14.70;99.90;;;;;;5036625;28;20038;-68
2023/08/06 05:01:04;;;;;;;0.20;0.20;;;14.70;99.90;;;;;;5041875;28;20076;-68
2023/08/06 05:03:30;;;;;;;0.47;0.32;;;14.70;99.90;;;;;;5040245;28;20045;-68
2023/08/06 05:05:55;;;;;;;0.05;0.05;;;14.70;99.90;;;;;;5030157;28;20045;-67
2023/08/06 05:08:21;;;;;;;0.00;0.00;;;14.80;99.90;;;;;;5039046;28;20056;-67
2023/08/06 05:10:47;;;;;;;0.00;0.00;;;14.80;99.90;;;;;;5046460;28;20041;-67
2023/08/06 05:13:12;;;;;;;0.17;0.17;;;14.70;99.90;;;;;;5039378;28;20045;-67
2023/08/06 05:15:42;;;;;;;1.38;0.50;;;14.70;99.90;;;;;;5037712;28;20102;-67
2023/08/06 05:18:08;;;;;;;0.00;0.00;;;14.80;99.90;;;;;;5039075;28;20045;-68
2023/08/06 05:20:37;;;;;;;0.00;0.00;;;14.80;99.90;;;;;;5036329;28;20048;-67
2023/08/06 05:23:03;;;;;;;0.00;0.00;;;14.80;99.90;;;;;;5038930;28;20501;-68
2023/08/06 05:25:28;;;;;;;0.00;0.00;;;14.80;99.90;;;;;;5036144;28;20108;-68
2023/08/06 05:27:54;;;;;;;0.10;0.10;;;14.90;99.90;;;;;;5040207;28;20050;-67
2023/08/06 05:30:19;;;;;;;0.52;0.52;;;14.90;99.90;;;;;;5044871;28;20082;-68
2023/08/06 05:32:45;;;;;;;0.00;0.00;;;14.90;99.90;;;;;;5034660;28;20056;-67
2023/08/06 05:35:10;;;;;;;0.40;0.40;;;14.90;99.90;;;;;;5020837;28;20049;-67
2023/08/06 05:37:36;;;;;;;0.10;0.10;;;15.00;99.90;;;;;;5030244;28;20457;-67
2023/08/06 05:40:03;;;;;;;0.00;0.00;;;15.00;99.90;;;;;;5038281;28;20076;-67
2023/08/06 05:42:29;;;;;;;0.00;0.00;;;15.00;99.90;;;;;;5037184;28;20044;-69
2023/08/06 05:44:55;;;;;;;0.10;0.10;;;15.00;99.90;;;;;;5044858;28;20033;-68
2023/08/06 05:47:20;;;;;;;0.17;0.17;;;15.10;99.90;;;;;;5040491;28;20049;-68
2023/08/06 05:49:46;;;;;;;0.45;0.30;;;15.10;99.90;;;;;;5038818;28;20033;-68
2023/08/06 05:52:12;;;;;;;0.00;0.00;;;15.10;99.90;;;;;;5038348;28;20049;-68
2023/08/06 05:54:37;;;;;;;0.75;0.30;;;15.10;99.90;;;;;;5034065;28;20049;-68
2023/08/06 05:57:03;;;;;;;0.25;0.25;;;15.10;99.90;;;;;;5024597;28;20054;-68
2023/08/06 05:59:29;;;;;;;0.00;0.00;;;15.20;99.90;;;;;;5034810;28;20045;-67
2023/08/06 06:01:54;;;;;;;0.00;0.00;;;15.20;99.90;;;;;;5019265;28;20107;-68
2023/08/06 06:04:20;;;;;;;0.00;0.00;;;15.20;99.90;;;;;;5036131;28;20121;-68
2023/08/06 06:06:46;;;;;;;0.32;0.32;;;15.20;99.90;;;;;;5041292;28;20045;-68
2023/08/06 06:09:11;;;;;;;0.00;0.00;;;15.30;99.90;;;;;;5035597;28;20068;-68
2023/08/06 06:11:37;;;;;;;0.03;0.03;;;15.30;99.90;;;;;;5034772;28;20052;-68
2023/08/06 06:14:02;;;;;;;0.00;0.00;;;15.40;99.90;;;;;;5041767;28;20135;-68
2023/08/06 06:16:28;;;;;;;0.10;0.10;;;15.40;99.90;;;;;;5036335;28;20388;-68
2023/08/06 06:18:54;;;;;;;0.05;0.05;;;15.50;99.90;;;;;;5038414;28;20073;-68
2023/08/06 06:21:20;;;;;;;0.10;0.10;;;15.50;99.90;;;;;;5041122;28;20040;-68
2023/08/06 06:23:46;;;;;;;0.15;0.10;;;15.50;99.90;;;;;;5033160;28;20049;-68
2023/08/06 06:26:12;;;;;;;0.17;0.17;;;15.50;99.90;;;;;;5041319;28;20068;-68
2023/08/06 06:28:38;;;;;;;0.45;0.45;;;15.60;99.90;;;;;;5020698;28;20055;-68
2023/08/06 06:31:04;;;;;;;1.13;0.20;;;15.60;99.90;;;;;;5036317;28;20041;-68
2023/08/06 06:33:30;;;;;;;0.00;0.00;;;15.60;99.90;;;;;;5039975;28;20041;-67
2023/08/06 06:35:55;;;;;;;0.25;0.25;;;15.70;99.90;;;;;;5035452;28;20152;-67
2023/08/06 06:38:21;;;;;;;0.00;0.00;;;15.70;99.90;;;;;;5023462;28;20049;-68
2023/08/06 06:40:56;;;;;;;0.00;0.00;;;15.80;99.90;;;;;;5044506;28;20372;-68
2023/08/06 06:43:22;;;;;;;0.35;0.30;;;15.80;99.90;;;;;;5022632;28;20056;-68
2023/08/06 06:45:53;;;;;;;0.00;0.00;;;15.90;99.90;;;;;;5047927;28;20388;-68
2023/08/06 06:48:19;;;;;;;0.00;0.00;;;15.90;99.90;;;;;;5046577;28;20045;-68
2023/08/06 06:50:48;;;;;;;0.00;0.00;;;15.90;99.90;;;;;;5043403;28;20099;-68
2023/08/06 06:53:14;;;;;;;2.40;0.20;;;16.00;99.90;;;;;;5043815;28;20086;-68
2023/08/06 06:55:39;;;;;;;0.60;0.55;;;16.00;99.90;;;;;;5033116;28;20179;-68
2023/08/06 06:58:05;;;;;;;0.43;0.40;;;16.00;99.90;;;;;;5040058;28;20052;-68
2023/08/06 07:00:30;;;;;;;0.65;0.65;;;16.00;99.90;;;;;;5027949;28;20056;-67
2023/08/06 07:02:56;;;;;;;0.00;0.00;;;16.10;99.90;;;;;;5037994;28;20145;-68
2023/08/06 07:05:22;;;;;;;0.00;0.00;;;16.10;99.90;;;;;;5026280;28;20178;-69
2023/08/06 07:07:48;;;;;;;0.10;0.10;;;16.00;99.90;;;;;;5033261;28;20037;-68
2023/08/06 07:10:13;;;;;;;0.00;0.00;;;16.10;99.90;;;;;;5042475;28;20049;-68
2023/08/06 07:12:39;;;;;;;0.00;0.00;;;16.10;99.90;;;;;;5036315;28;20034;-68
2023/08/06 07:15:06;;;;;;;0.00;0.00;;;16.10;99.90;;;;;;5046579;28;20528;-68
2023/08/06 07:17:32;;;;;;;0.15;0.15;;;16.10;99.90;;;;;;5041866;28;20044;-68
2023/08/06 07:19:58;;;;;;;0.20;0.10;;;16.00;99.90;;;;;;5046552;28;20053;-68
2023/08/06 07:22:24;;;;;;;0.00;0.00;;;16.10;99.90;;;;;;5040464;28;20455;-68
2023/08/06 07:24:49;;;;;;;0.73;0.73;;;16.10;99.90;;;;;;5036581;28;20095;-68
2023/08/06 07:27:15;;;;;;;0.10;0.10;;;16.20;99.90;;;;;;5042134;28;20041;-68
2023/08/06 07:29:41;;;;;;;0.00;0.00;;;16.20;99.90;;;;;;5039772;28;20043;-68
2023/08/06 07:32:07;;;;;;;0.03;0.03;;;16.30;99.90;;;;;;5034591;28;20045;-68
2023/08/06 07:34:33;;;;;;;0.25;0.25;;;16.30;99.90;;;;;;5026211;28;20053;-68
2023/08/06 07:36:59;;;;;;;0.20;0.20;;;16.40;99.90;;;;;;5040784;28;20068;-68
2023/08/06 07:39:24;;;;;;;0.20;0.20;;;16.50;99.90;;;;;;5027425;28;20053;-68
2023/08/06 07:41:50;;;;;;;0.10;0.10;;;16.60;99.90;;;;;;5043648;28;20049;-68
2023/08/06 07:44:16;;;;;;;0.10;0.10;;;16.70;99.90;;;;;;5039660;28;20499;-68
2023/08/06 07:46:41;;;;;;;0.10;0.10;;;16.80;99.90;;;;;;5040156;28;20083;-68
2023/08/06 07:49:10;;;;;;;0.10;0.10;;;16.90;99.90;;;;;;5043467;28;20052;-68
2023/08/06 07:51:36;;;;;;;0.00;0.00;;;17.00;99.90;;;;;;5039519;28;20556;-68
2023/08/06 07:54:03;;;;;;;0.10;0.10;;;17.00;99.90;;;;;;5040548;28;20063;-67
2023/08/06 07:56:29;;;;;;;0.00;0.00;;;17.00;99.90;;;;;;5041791;28;20045;-68
2023/08/06 07:58:54;;;;;;;0.00;0.00;;;17.00;99.90;;;;;;5042861;28;20040;-67
2023/08/06 08:01:20;;;;;;;0.00;0.00;;;17.10;99.90;;;;;;5034887;28;20038;-68
2023/08/06 08:03:45;;;;;;;0.00;0.00;;;17.20;99.90;;;;;;5043113;28;20045;-67
2023/08/06 08:06:11;;;;;;;0.00;0.00;;;17.20;99.90;;;;;;5033863;28;20037;-68
2023/08/06 08:08:38;;;;;;;0.00;0.00;;;17.20;99.90;;;;;;5037269;28;20041;-68
2023/08/06 08:11:04;;;;;;;0.00;0.00;;;17.30;99.90;;;;;;5033291;28;20052;-68
2023/08/06 08:13:30;;;;;;;0.00;0.00;;;17.40;99.90;;;;;;5032404;28;20038;-68
2023/08/06 08:15:59;;;;;;;0.10;0.10;;;17.40;99.90;;;;;;5038371;28;20083;-67
2023/08/06 08:18:25;;;;;;;0.00;0.00;;;17.50;99.90;;;;;;5041373;28;20052;-68
2023/08/06 08:20:51;;;;;;;0.15;0.15;;;17.50;99.90;;;;;;5035147;28;20358;-68
2023/08/06 08:23:17;;;;;;;0.00;0.00;;;17.60;99.90;;;;;;5036086;28;20052;-67
2023/08/06 08:25:43;;;;;;;0.00;0.00;;;17.60;99.90;;;;;;5038722;28;20038;-67
2023/08/06 08:28:08;;;;;;;0.00;0.00;;;17.70;99.90;;;;;;5035749;28;20049;-68
2023/08/06 08:30:34;;;;;;;0.20;0.20;;;17.70;99.90;;;;;;5032965;28;20045;-68
2023/08/06 08:32:59;;;;;;;0.52;0.30;;;17.70;99.90;;;;;;5039384;28;20802;-68
2023/08/06 08:35:25;;;;;;;0.30;0.30;;;17.90;99.90;;;;;;5036887;28;20045;-68
2023/08/06 08:37:51;;;;;;;0.00;0.00;;;17.90;99.90;;;;;;5038071;28;20049;-68
2023/08/06 08:40:17;;;;;;;0.22;0.22;;;18.00;99.90;;;;;;5033000;28;20064;-68
2023/08/06 08:42:43;;;;;;;0.00;0.00;;;18.00;99.90;;;;;;5038037;28;20045;-68
2023/08/06 08:45:14;;;;;;;0.45;0.32;;;18.00;99.90;;;;;;5036292;28;20044;-68
2023/08/06 08:47:42;;;;;;;0.00;0.00;;;18.10;99.90;;;;;;5041767;28;20053;-68
2023/08/06 08:50:10;;;;;;;0.00;0.00;;;18.10;99.90;;;;;;5038189;28;20257;-67
2023/08/06 08:52:37;;;;;;;0.10;0.10;;;18.20;99.90;;;;;;5044049;28;20053;-68
2023/08/06 08:55:03;;;;;;;0.15;0.15;;;18.20;99.90;;;;;;5038572;28;20046;-68
2023/08/06 08:57:29;;;;;;;0.20;0.20;;;18.30;99.90;;;;;;5039799;28;20029;-68
2023/08/06 08:59:55;;;;;;;0.00;0.00;;;18.40;99.90;;;;;;5036861;28;20033;-68
2023/08/06 09:02:23;;;;;;;0.32;0.32;;;18.40;99.90;;;;;;5042902;28;20393;-68
2023/08/06 09:04:49;;;;;;;0.00;0.00;;;18.50;99.90;;;;;;5037446;28;20037;-68
2023/08/06 09:07:19;;;;;;;0.05;0.05;;;18.40;99.90;;;;;;5036360;28;20454;-68
2023/08/06 09:09:48;;;;;;;0.00;0.00;;;18.50;99.90;;;;;;5024181;28;20045;-68
2023/08/06 09:12:17;;;;;;;0.10;0.10;;;18.50;99.90;;;;;;5041115;28;20056;-68
2023/08/06 09:14:43;;;;;;;0.05;0.05;;;18.50;99.90;;;;;;5032911;28;20041;-68
2023/08/06 09:17:12;;;;;;;0.00;0.00;;;18.50;99.90;;;;;;5038568;28;20044;-68
2023/08/06 09:19:43;;;;;;;0.10;0.10;;;18.50;99.90;;;;;;5030131;28;20504;-68
2023/08/06 09:22:13;;;;;;;0.00;0.00;;;18.60;99.90;;;;;;5035732;28;20107;-68
2023/08/06 09:24:40;;;;;;;0.10;0.10;;;18.60;99.90;;;;;;5033439;28;20041;-68
2023/08/06 09:27:14;;;;;;;0.20;0.20;;;18.60;99.90;;;;;;5020013;28;20723;-68
2023/08/06 09:29:43;;;;;;;0.22;0.22;;;18.60;99.90;;;;;;5033799;28;20163;-67
2023/08/06 09:32:09;;;;;;;0.00;0.00;;;18.70;99.90;;;;;;5035062;28;20046;-68
2023/08/06 09:34:34;;;;;;;0.00;0.00;;;18.70;99.90;;;;;;5030056;28;20038;-68
2023/08/06 09:37:00;;;;;;;0.00;0.00;;;18.60;99.90;;;;;;5037682;28;20150;-68
2023/08/06 09:39:30;;;;;;;0.22;0.20;;;18.70;99.90;;;;;;5040807;28;20052;-67
2023/08/06 09:41:57;;;;;;;0.00;0.00;;;18.70;99.90;;;;;;5038164;28;20072;-67
2023/08/06 09:44:25;;;;;;;0.45;0.45;;;18.70;99.90;;;;;;5042096;28;20131;-68
2023/08/06 09:46:53;;;;;;;0.73;0.40;;;18.60;99.90;;;;;;5020759;28;20037;-68
2023/08/06 09:49:19;;;;;;;0.95;0.45;;;18.70;99.90;;;;;;5034185;28;20510;-68
2023/08/06 09:51:46;;;;;;;0.08;0.08;;;18.70;99.90;;;;;;5034259;28;20057;-68
2023/08/06 09:54:16;;;;;;;0.13;0.10;;;18.70;99.90;;;;;;5043746;28;20107;-68
2023/08/06 09:56:42;;;;;;;0.05;0.05;;;18.80;99.90;;;;;;5037481;28;20076;-68
2023/08/06 09:59:08;;;;;;;0.00;0.00;;;18.70;99.90;;;;;;5042110;28;20526;-67
2023/08/06 10:01:35;;;;;;;0.20;0.20;;;18.80;99.90;;;;;;5026084;28;20159;-68
2023/08/06 10:04:07;;;;;;;0.00;0.00;;;18.80;99.90;;;;;;5047740;28;20049;-68
2023/08/06 10:06:36;;;;;;;0.00;0.00;;;18.90;99.90;;;;;;5043718;28;20056;-68
2023/08/06 10:09:03;;;;;;;0.00;0.00;;;18.90;99.90;;;;;;5039250;28;20080;-68
2023/08/06 10:11:29;;;;;;;0.30;0.30;;;18.80;99.90;;;;;;5043396;28;20041;-68
2023/08/06 10:14:30;;;;;;;0.00;0.00;;;18.90;99.90;;;;;;5022647;28;20103;-68
2023/08/06 10:16:58;;;;;;;0.15;0.15;;;18.90;99.90;;;;;;5038906;28;20769;-68
2023/08/06 10:19:24;;;;;;;0.15;0.15;;;19.00;99.90;;;;;;5041300;28;20083;-68
2023/08/06 10:22:08;;;;;;;1.88;0.20;;;19.10;99.90;;;;;;5037446;28;20093;-68
2023/08/06 10:24:50;;;;;;;;;;;19.00;99.90;;;;;;5042752;28;20044;-68
2023/08/06 10:27:39;;;;;;;0.00;0.00;;;19.00;99.90;;;;;;5040864;28;20013;-68
2023/08/06 10:30:28;;;;;;;0.77;0.22;;;19.00;99.90;;;;;;5031809;28;20049;-68
2023/08/06 10:32:57;;;;;;;0.00;0.00;;;19.00;99.90;;;;;;5037044;28;20045;-68
2023/08/06 10:35:50;;;;;;;0.00;0.00;;;19.10;99.90;;;;;;5033245;28;20052;-68
2023/08/06 10:38:21;;;;;;;0.13;0.13;;;19.30;99.90;;;;;;5045014;28;20381;-68
2023/08/06 10:40:53;;;;;;;0.00;0.00;;;19.50;99.90;;;;;;5042278;28;20041;-68
2023/08/06 10:43:43;;;;;;;0.68;0.68;;;19.80;99.90;;;;;;5037964;28;20076;-68
2023/08/06 10:46:26;;;;;;;0.00;0.00;;;20.10;99.90;;;;;;5022719;28;20053;-70
2023/08/06 10:48:52;;;;;;;0.20;0.17;;;20.10;99.90;;;;;;5043548;28;20137;-69
2023/08/06 10:51:18;;;;;;;0.00;0.00;;;20.10;99.90;;;;;;5035839;28;20095;-68
2023/08/06 10:53:48;;;;;;;0.55;0.30;;;19.90;99.90;;;;;;5039170;28;20517;-69
2023/08/06 10:56:14;;;;;;;0.10;0.10;;;19.70;99.90;;;;;;5042772;28;20050;-68
2023/08/06 10:58:41;;;;;;;0.15;0.15;;;19.50;99.90;;;;;;5036113;28;20049;-69
2023/08/06 11:01:06;;;;;;;0.15;0.15;;;19.30;99.90;;;;;;5036823;28;20062;-69
2023/08/06 11:03:34;;;;;;;0.47;0.47;;;19.30;99.90;;;;;;5026483;28;20052;-68
2023/08/06 11:05:59;;;;;;;0.00;0.00;;;19.20;99.90;;;;;;5037622;28;20050;-69
2023/08/06 11:08:29;;;;;;;0.00;0.00;;;19.10;99.90;;;;;;5038381;28;20086;-69
2023/08/06 11:11:07;;;;;;;0.30;0.30;;;19.00;99.90;;;;;;5040579;28;20033;-69
2023/08/06 11:13:32;;;;;;;0.10;0.10;;;19.00;99.90;;;;;;5042547;28;20053;-69
2023/08/06 11:15:58;;;;;;;0.10;0.10;;;19.00;99.90;;;;;;5039813;28;20484;-69
2023/08/06 11:18:24;;;;;;;0.00;0.00;;;18.90;99.90;;;;;;5042142;28;20041;-69
2023/08/06 11:20:49;;;;;;;0.10;0.10;;;18.90;99.90;;;;;;5038886;28;20030;-69
2023/08/06 11:23:15;;;;;;;0.45;0.45;;;18.90;99.90;;;;;;5039097;28;20582;-69
2023/08/06 11:25:45;;;;;;;0.00;0.00;;;19.00;99.90;;;;;;5024761;28;20366;-69
2023/08/06 11:28:11;;;;;;;0.10;0.10;;;19.00;99.90;;;;;;5036986;28;20037;-68
2023/08/06 11:30:38;;;;;;;0.10;0.10;;;19.00;99.90;;;;;;5040189;28;20048;-69
2023/08/06 11:33:07;;;;;;;0.35;0.30;;;19.00;99.90;;;;;;5038525;28;20130;-69
2023/08/06 11:35:35;;;;;;;0.00;0.00;;;18.90;99.90;;;;;;5039560;28;20063;-69
2023/08/06 11:38:01;;;;;;;0.00;0.00;;;19.00;99.90;;;;;;5039857;28;20117;-69
2023/08/06 11:40:26;;;;;;;0.00;0.00;;;19.00;99.90;;;;;;5033311;28;20172;-69
2023/08/06 11:42:52;;;;;;;0.40;0.17;;;19.00;99.90;;;;;;5034326;28;20489;-69
2023/08/06 11:45:23;;;;;;;0.00;0.00;;;19.00;99.90;;;;;;5037893;28;20060;-69
2023/08/06 11:47:52;;;;;;;0.00;0.00;;;19.10;99.90;;;;;;5039274;28;20572;-69
2023/08/06 11:50:25;;;;;;;0.00;0.00;;;19.00;99.90;;;;;;5036662;28;20425;-68
2023/08/06 11:52:58;;;;;;;0.10;0.10;;;19.00;99.90;;;;;;5036121;28;20037;-69
2023/08/06 11:55:25;;;;;;;0.00;0.00;;;19.10;99.90;;;;;;5035396;28;20049;-69
2023/08/06 11:57:51;;;;;;;0.10;0.10;;;19.10;99.90;;;;;;5041379;28;20396;-69
2023/08/06 12:00:19;;;;;;;0.95;0.63;;;19.10;99.90;;;;;;5022361;28;20508;-69
2023/08/06 12:02:46;;;;;;;0.13;0.13;;;19.10;99.90;;;;;;5037145;28;20047;-69
2023/08/06 12:05:13;;;;;;;0.60;0.60;;;19.00;99.90;;;;;;5034890;28;20053;-69
2023/08/06 12:07:44;;;;;;;0.00;0.00;;;19.10;99.90;;;;;;5037244;28;20076;-70
2023/08/06 12:10:12;;;;;;;0.00;0.00;;;19.10;99.90;;;;;;5036139;28;20053;-70
2023/08/06 12:12:38;;;;;;;0.00;0.00;;;19.10;99.90;;;;;;5028365;28;20048;-69
2023/08/06 12:15:06;;;;;;;0.22;0.20;;;19.10;99.90;;;;;;5028642;28;20504;-69
2023/08/06 12:17:31;;;;;;;0.45;0.45;;;19.10;99.90;;;;;;5027584;28;20369;-69
2023/08/06 12:19:57;;;;;;;0.00;0.00;;;19.20;99.90;;;;;;5041221;28;20038;-69
2023/08/06 12:22:23;;;;;;;0.10;0.10;;;19.20;99.90;;;;;;5039017;28;20184;-69
2023/08/06 12:24:48;;;;;;;0.52;0.32;;;19.20;99.90;;;;;;5035039;28;20498;-69
2023/08/06 12:27:18;;;;;;;0.28;0.28;;;19.30;99.90;;;;;;5038461;28;20044;-70
2023/08/06 12:29:48;;;;;;;0.10;0.10;;;19.30;99.90;;;;;;5036055;28;20041;-69
2023/08/06 12:32:14;;;;;;;0.20;0.20;;;19.40;99.90;;;;;;5038371;28;20045;-69
2023/08/06 12:34:41;;;;;;;0.00;0.00;;;19.30;99.90;;;;;;5041961;28;20155;-69
2023/08/06 12:37:07;;;;;;;0.00;0.00;;;19.30;99.90;;;;;;5031118;28;20042;-69
2023/08/06 12:39:33;;;;;;;0.00;0.00;;;19.40;99.90;;;;;;5039717;28;20041;-69
2023/08/06 12:42:03;;;;;;;0.00;0.00;;;19.40;99.90;;;;;;5045019;28;20072;-69
2023/08/06 12:44:29;;;;;;;0.00;0.00;;;19.40;99.90;;;;;;5036043;28;20033;-69
2023/08/06 12:46:55;;;;;;;3.08;1.17;;;19.40;99.90;;;;;;5041665;28;20399;-69